Time;durP1;ratioP1;P1;durP2;ratioP2;P2;SDS_P1;SDS_P2;PMS_P1;PMS_P2;Temp;Humidity;BMP_temperature;BMP_pressure;BME280_temperature;BME280_humidity;BME280_pressure;Samples;Min_cycle;Max_cycle;Signal;HPM_P1;HPM_P2
2022/11/20 00:01:17;;;;;;;;;;;;;;;-142.75;100.00;78941.03;4995929;28;20024;-66
2022/11/20 00:03:43;;;;;;;15.20;5.83;;;;;;;-142.75;100.00;78939.06;4990307;28;20039;-66
2022/11/20 00:06:11;;;;;;;10.55;5.47;;;;;;;-142.75;100.00;78950.88;4986439;28;20326;-66
2022/11/20 00:08:37;;;;;;;10.70;5.97;;;;;;;-142.75;100.00;78972.56;4997372;28;20529;-66
2022/11/20 00:11:11;;;;;;;12.18;6.07;;;;;;;-142.75;100.00;78956.78;4996470;28;20040;-66
2022/11/20 00:13:36;;;;;;;13.83;6.43;;;;;;;-142.75;100.00;78968.63;4988660;28;20160;-66
2022/11/20 00:16:04;;;;;;;10.65;6.25;;;;;;;-142.75;100.00;78952.84;4992947;28;20392;-69
2022/11/20 00:18:30;;;;;;;10.30;5.37;;;;;;;-142.75;100.00;78952.84;4995701;28;20055;-68
2022/11/20 00:21:05;;;;;;;;;;;;;;;-142.75;100.00;78968.63;5000347;28;20024;-68
2022/11/20 00:23:31;;;;;;;9.43;5.57;;;;;;;-142.75;100.00;78972.56;4996648;28;19916;-68
2022/11/20 00:26:02;;;;;;;10.23;5.78;;;;;;;-142.75;100.00;78972.56;4985572;28;20055;-66
2022/11/20 00:28:27;;;;;;;10.97;5.50;;;;;;;-142.75;100.00;78972.56;4990833;28;20072;-66
2022/11/20 00:31:02;;;;;;;10.07;5.78;;;;;;;-142.75;100.00;78970.59;4992728;28;20321;-66
2022/11/20 00:33:29;;;;;;;12.10;6.03;;;;;;;-142.75;100.00;78978.47;4989891;28;20194;-66
2022/11/20 00:35:59;;;;;;;12.63;6.07;;;;;;;-142.75;100.00;78970.59;4989559;28;20068;-65
2022/11/20 00:38:24;;;;;;;13.87;6.67;;;;;;;-142.75;100.00;78958.75;4989474;28;20116;-66
2022/11/20 00:40:55;;;;;;;11.95;6.50;;;;;;;-142.75;100.00;78972.56;4995671;28;20193;-66
2022/11/20 00:43:21;;;;;;;11.83;6.13;;;;;;;-142.75;100.00;78960.72;4991220;28;20597;-66
2022/11/20 00:45:46;;;;;;;11.68;6.30;;;;;;;-142.75;100.00;78964.69;5000622;28;20035;-66
2022/11/20 00:48:12;;;;;;;12.82;6.25;;;;;;;-142.75;100.00;78954.81;4993936;28;20365;-66
2022/11/20 00:50:37;;;;;;;9.90;5.38;;;;;;;-142.75;100.00;78964.69;4997807;28;20365;-66
2022/11/20 00:53:03;;;;;;;11.80;6.43;;;;;;;-142.75;100.00;78964.69;4992349;28;20025;-67
2022/11/20 00:55:28;;;;;;;13.13;6.57;;;;;;;-142.75;100.00;78952.84;5000579;28;20460;-66
2022/11/20 00:57:54;;;;;;;12.45;6.32;;;;;;;-142.75;100.00;78948.91;4996481;28;20185;-66
2022/11/20 01:00:19;;;;;;;13.23;6.60;;;;;;;-142.75;100.00;78956.78;4990652;28;20154;-68
2022/11/20 01:02:45;;;;;;;21.73;7.35;;;;;;;-142.75;100.00;78950.88;4995101;28;20035;-66
2022/11/20 01:05:10;;;;;;;9.98;6.28;;;;;;;-142.75;100.00;78950.88;4998731;28;20337;-66
2022/11/20 01:07:35;;;;;;;14.80;7.03;;;;;;;-142.75;100.00;78954.81;4992411;28;20342;-66
2022/11/20 01:10:01;;;;;;;11.73;6.10;;;;;;;-142.75;100.00;78952.84;4996326;28;20485;-67
2022/11/20 01:12:27;;;;;;;19.80;7.30;;;;;;;-142.75;100.00;78946.94;4998440;28;20312;-67
2022/11/20 01:14:52;;;;;;;12.82;6.85;;;;;;;-142.75;100.00;78944.97;4996282;28;20317;-66
2022/11/20 01:17:18;;;;;;;13.18;6.53;;;;;;;-142.75;100.00;78962.69;4990300;28;20317;-66
2022/11/20 01:19:43;;;;;;;13.70;6.70;;;;;;;-142.75;100.00;78952.84;4990880;28;20380;-66
2022/11/20 01:22:09;;;;;;;12.95;6.50;;;;;;;-142.75;100.00;78935.13;4994282;28;20327;-67
2022/11/20 01:24:34;;;;;;;16.30;6.78;;;;;;;-142.75;100.00;78925.28;4994641;28;20025;-67
2022/11/20 01:27:00;;;;;;;12.27;6.35;;;;;;;-142.75;100.00;78950.88;4992642;28;20425;-67
2022/11/20 01:29:25;;;;;;;13.65;6.90;;;;;;;-142.75;100.00;78952.84;4990869;28;20433;-67
2022/11/20 01:31:52;;;;;;;14.80;7.15;;;;;;;-142.75;100.00;78929.22;4997382;28;20276;-66
2022/11/20 01:34:19;;;;;;;14.80;6.93;;;;;;;-142.75;100.00;78899.69;4992705;28;20032;-66
2022/11/20 01:36:45;;;;;;;13.33;6.67;;;;;;;-142.75;100.00;78879.97;4997528;28;20040;-67
2022/11/20 01:39:20;;;;;;;13.10;7.50;;;;;;;-142.75;100.00;78893.78;4990839;28;20036;-66
2022/11/20 01:44:53;;;;;;;15.00;7.60;;;;;;;-142.75;100.00;78879.97;4994455;28;20586;-66
2022/11/20 01:47:41;;;;;;;15.53;7.20;;;;;;;-142.75;100.00;78874.06;4997782;28;20575;-66
2022/11/20 01:50:06;;;;;;;15.43;7.83;;;;;;;-142.75;100.00;78872.09;4996638;28;20025;-66
2022/11/20 01:52:43;;;;;;;13.10;6.90;;;;;;;-142.75;100.00;78874.06;4985299;28;20338;-66
2022/11/20 01:55:12;;;;;;;17.03;7.57;;;;;;;-142.75;100.00;78876.03;4992349;28;20016;-67
2022/11/20 01:57:39;;;;;;;13.23;6.77;;;;;;;-142.75;100.00;78872.09;4990924;28;20024;-67
2022/11/20 02:00:11;;;;;;;13.20;6.77;;;;;;;-142.75;100.00;78876.03;4987937;28;20150;-67
2022/11/20 02:02:39;;;;;;;10.80;6.23;;;;;;;-142.75;100.00;78891.78;4991969;28;20028;-66
2022/11/20 02:05:17;;;;;;;13.93;7.37;;;;;;;-142.75;100.00;78917.41;4998516;28;20025;-67
2022/11/20 02:07:43;;;;;;;13.47;6.17;;;;;;;-142.75;100.00;78905.59;4995539;28;20051;-66
2022/11/20 02:10:09;;;;;;;12.83;6.47;;;;;;;-142.75;100.00;78917.41;4990611;28;20638;-67
2022/11/20 02:15:18;;;;;;;13.30;7.07;;;;;;;-142.75;100.00;78948.91;4994146;28;20402;-66
2022/11/20 02:17:44;;;;;;;13.25;6.45;;;;;;;-142.75;100.00;78917.41;4988978;28;20903;-66
2022/11/20 02:20:10;;;;;;;13.75;6.97;;;;;;;-142.75;100.00;78937.09;4997669;28;20334;-66
2022/11/20 02:22:45;;;;;;;14.63;6.43;;;;;;;-142.75;100.00;78915.44;4992663;28;20032;-67
2022/11/20 02:25:11;;;;;;;11.80;6.37;;;;;;;-142.75;100.00;78944.97;4993083;28;20024;-67
2022/11/20 02:27:37;;;;;;;13.57;6.90;;;;;;;-142.75;100.00;78972.56;4985373;28;20013;-68
2022/11/20 02:30:07;;;;;;;14.98;7.00;;;;;;;-142.75;100.00;78964.69;4992895;28;20207;-67
2022/11/20 02:32:35;;;;;;;15.10;7.43;;;;;;;-142.75;100.00;78943.00;4997583;28;20101;-67
2022/11/20 02:35:19;;;;;;;12.90;7.43;;;;;;;-142.75;100.00;78944.97;4992397;28;20025;-68
2022/11/20 02:37:48;;;;;;;12.80;6.47;;;;;;;-142.75;100.00;78954.81;4993207;28;20545;-67
2022/11/20 02:40:14;;;;;;;15.90;6.67;;;;;;;-142.75;100.00;78968.63;5001888;28;20028;-68
2022/11/20 02:42:39;;;;;;;12.98;6.15;;;;;;;-142.75;100.00;78972.56;4990330;28;20396;-67
2022/11/20 02:45:06;;;;;;;13.48;5.95;;;;;;;-142.75;100.00;78974.53;4989014;28;20033;-67
2022/11/20 02:47:32;;;;;;;12.67;7.27;;;;;;;-142.75;100.00;78980.44;4996001;28;20105;-67
2022/11/20 02:49:58;;;;;;;11.45;6.63;;;;;;;-142.75;100.00;78984.38;4997371;28;20367;-67
2022/11/20 02:52:24;;;;;;;13.35;6.68;;;;;;;-142.75;100.00;78974.53;4999096;28;20021;-67
2022/11/20 02:54:49;;;;;;;11.63;6.05;;;;;;;-142.75;100.00;78970.59;4993670;28;20043;-67
2022/11/20 02:57:15;;;;;;;13.80;6.30;;;;;;;-142.75;100.00;78962.69;4995549;28;20388;-67
2022/11/20 02:59:41;;;;;;;9.73;5.53;;;;;;;-142.75;100.00;78974.53;4991183;28;20341;-67
2022/11/20 03:02:06;;;;;;;10.05;5.10;;;;;;;-142.75;100.00;78984.38;4990259;28;20357;-67
2022/11/20 03:04:31;;;;;;;9.88;5.55;;;;;;;-142.75;100.00;78970.59;4997117;28;20028;-68
2022/11/20 03:06:57;;;;;;;14.05;6.82;;;;;;;-142.75;100.00;78958.75;4986802;28;20516;-67
2022/11/20 03:09:23;;;;;;;13.00;6.28;;;;;;;-142.75;100.00;78948.91;4993438;28;20320;-67
2022/11/20 03:11:48;;;;;;;11.70;5.65;;;;;;;-142.75;100.00;78950.88;4996617;28;20310;-67
2022/11/20 03:14:14;;;;;;;11.70;6.10;;;;;;;-142.75;100.00;78952.84;4992476;28;20321;-67
2022/11/20 03:16:39;;;;;;;12.90;6.82;;;;;;;-142.75;100.00;78962.69;4993898;28;20329;-67
2022/11/20 03:19:05;;;;;;;12.40;7.25;;;;;;;-142.75;100.00;78968.63;4995202;28;20171;-67
2022/11/20 03:21:33;;;;;;;14.95;6.47;;;;;;;-142.75;100.00;78972.56;4992717;28;20040;-67
2022/11/20 03:23:58;;;;;;;11.20;6.77;;;;;;;-142.75;100.00;78964.69;4992383;28;20106;-68
2022/11/20 03:26:26;;;;;;;12.00;6.07;;;;;;;-142.75;100.00;78956.78;4992625;28;20097;-67
2022/11/20 03:28:57;;;;;;;13.43;6.43;;;;;;;-142.75;100.00;78960.72;4992939;28;20048;-67
2022/11/20 03:31:26;;;;;;;12.53;5.83;;;;;;;-142.75;100.00;78970.59;4987052;28;20174;-67
2022/11/20 03:33:52;;;;;;;12.40;6.20;;;;;;;-142.75;100.00;78952.84;4994657;28;20094;-67
2022/11/20 03:36:19;;;;;;;17.90;7.18;;;;;;;-142.75;100.00;78917.41;4994314;28;20024;-68
2022/11/20 03:38:45;;;;;;;13.27;7.30;;;;;;;-142.75;100.00;78919.38;4992269;28;20024;-66
2022/11/20 03:41:13;;;;;;;14.30;7.27;;;;;;;-142.75;100.00;78927.25;4989750;28;20102;-68
2022/11/20 03:43:40;;;;;;;15.87;6.93;;;;;;;-142.75;100.00;78929.22;4996614;28;20017;-67
2022/11/20 03:46:06;;;;;;;14.33;6.93;;;;;;;-142.75;100.00;78917.41;4990920;28;20217;-67
2022/11/20 03:48:31;;;;;;;13.37;6.93;;;;;;;-142.75;100.00;78915.44;4993706;28;20124;-66
2022/11/20 03:51:12;;;;;;;14.55;7.38;;;;;;;-142.75;100.00;78919.38;4989587;28;20333;-67
2022/11/20 03:53:38;;;;;;;12.87;7.47;;;;;;;-142.75;100.00;78917.41;4988203;28;20311;-69
2022/11/20 03:56:04;;;;;;;12.83;6.70;;;;;;;-142.75;100.00;78937.09;4991094;28;20159;-67
2022/11/20 03:58:30;;;;;;;13.45;6.80;;;;;;;-142.75;100.00;78941.03;4992214;28;20193;-66
2022/11/20 04:00:55;;;;;;;9.57;5.53;;;;;;;-142.75;100.00;78946.94;4996679;28;20329;-68
2022/11/20 04:03:21;;;;;;;12.10;6.05;;;;;;;-142.75;100.00;78943.00;5001033;28;20325;-69
2022/11/20 04:05:46;;;;;;;11.98;6.47;;;;;;;-142.75;100.00;78948.91;4993071;28;20399;-66
2022/11/20 04:08:12;;;;;;;12.85;7.05;;;;;;;-142.75;100.00;78944.97;4994976;28;20195;-67
2022/11/20 04:10:37;;;;;;;14.57;6.43;;;;;;;-142.75;100.00;78944.97;4989810;28;20502;-67
2022/11/20 04:13:03;;;;;;;13.95;6.47;;;;;;;-142.75;100.00;78923.31;4995683;28;20498;-67
2022/11/20 04:15:29;;;;;;;15.73;7.13;;;;;;;-142.75;100.00;78937.09;4992184;28;20357;-68
2022/11/20 04:17:54;;;;;;;11.23;6.28;;;;;;;-142.75;100.00;78911.50;4988052;28;20139;-68
2022/11/20 04:20:20;;;;;;;16.35;7.32;;;;;;;-142.75;100.00;78893.78;4991911;28;20336;-68
2022/11/20 04:22:45;;;;;;;13.85;6.70;;;;;;;-142.75;100.00;78878.00;4987143;28;20293;-67
2022/11/20 04:25:11;;;;;;;12.82;7.20;;;;;;;-142.75;100.00;78876.03;4990174;28;20102;-66
2022/11/20 04:27:36;;;;;;;15.65;7.55;;;;;;;-142.75;100.00;78858.31;4982366;28;20481;-66
2022/11/20 04:30:02;;;;;;;14.40;7.50;;;;;;;-142.75;100.00;78830.75;4990448;28;20348;-67
2022/11/20 04:32:27;;;;;;;12.90;6.85;;;;;;;-142.75;100.00;78822.88;4996538;28;20185;-68
2022/11/20 04:34:52;;;;;;;12.95;6.95;;;;;;;-142.75;100.00;78830.75;5005402;28;20291;-68
2022/11/20 04:37:18;;;;;;;11.98;6.53;;;;;;;-142.75;100.00;78822.88;4990908;28;20431;-67
2022/11/20 04:39:44;;;;;;;12.32;7.45;;;;;;;-142.75;100.00;78832.72;4990637;28;20490;-67
2022/11/20 04:42:28;;;;;;;13.10;7.22;;;;;;;-142.75;100.00;78826.81;4985172;28;20416;-67
2022/11/20 04:44:54;;;;;;;15.77;7.80;;;;;;;-142.75;100.00;78834.69;4995946;28;20056;-67
2022/11/20 04:49:51;;;;;;;11.63;6.43;;;;;;;-142.75;100.00;78844.53;4969327;28;20366;-66
2022/11/20 04:52:17;;;;;;;16.88;7.22;;;;;;;-142.75;100.00;78846.50;4973046;28;20893;-65
2022/11/20 04:54:42;;;;;;;15.20;7.57;;;;;;;-142.75;100.00;78852.41;4975476;28;20296;-65
2022/11/20 04:57:07;;;;;;;14.70;7.60;;;;;;;-142.75;100.00;78850.44;4965903;28;20233;-66
2022/11/20 04:59:33;;;;;;;13.15;6.82;;;;;;;-142.75;100.00;78850.44;4972036;28;20306;-63
2022/11/20 05:01:58;;;;;;;15.05;7.47;;;;;;;-142.75;100.00;78846.50;4979700;28;20421;-63
2022/11/20 05:04:24;;;;;;;15.38;7.05;;;;;;;-142.75;100.00;78854.38;4976926;28;20461;-65
2022/11/20 05:06:50;;;;;;;16.00;8.93;;;;;;;-142.75;100.00;78852.41;4975273;28;20474;-65
2022/11/20 05:09:15;;;;;;;14.88;7.97;;;;;;;-142.75;100.00;78850.44;4977582;28;20312;-65
2022/11/20 05:11:41;;;;;;;15.18;7.57;;;;;;;-142.75;100.00;78866.19;4973028;28;20344;-65
2022/11/20 05:14:06;;;;;;;15.27;7.30;;;;;;;-142.75;100.00;78870.13;4975878;28;20312;-64
2022/11/20 05:16:34;;;;;;;12.10;7.10;;;;;;;-142.75;100.00;78866.19;4969000;28;20387;-65
2022/11/20 05:19:00;;;;;;;12.53;7.30;;;;;;;-142.75;100.00;78872.09;4966226;28;20037;-64
2022/11/20 05:21:25;;;;;;;13.82;7.43;;;;;;;-142.75;100.00;78864.22;4972989;28;20327;-65
2022/11/20 05:23:51;;;;;;;14.85;7.85;;;;;;;-142.75;100.00;78872.09;4973486;28;20379;-65
2022/11/20 05:26:21;;;;;;;15.93;8.23;;;;;;;-142.75;100.00;78878.00;4968359;28;20383;-65
2022/11/20 05:28:46;;;;;;;17.93;8.43;;;;;;;-142.75;100.00;78868.16;4947445;28;20558;-65
2022/11/20 05:31:18;;;;;;;15.88;8.00;;;;;;;-142.75;100.00;78852.41;4981452;28;20025;-65
2022/11/20 05:33:44;;;;;;;16.17;7.90;;;;;;;-142.75;100.00;78852.41;4961831;28;20095;-64
2022/11/20 05:36:12;;;;;;;17.33;8.57;;;;;;;-142.75;100.00;78858.31;4970233;28;20060;-64
2022/11/20 05:38:38;;;;;;;14.73;7.27;;;;;;;-142.75;100.00;78866.19;4968401;28;20025;-65
2022/11/20 05:41:08;;;;;;;14.82;7.47;;;;;;;-142.75;100.00;78874.06;4978914;28;20378;-65
2022/11/20 05:43:34;;;;;;;14.87;7.97;;;;;;;-142.75;100.00;78891.78;4975637;28;20014;-65
2022/11/20 05:46:00;;;;;;;14.10;6.77;;;;;;;-142.75;100.00;78891.78;4976427;28;20187;-64
2022/11/20 05:48:26;;;;;;;17.65;7.43;;;;;;;-142.75;100.00;78874.06;4975266;28;20037;-65
2022/11/20 05:50:51;;;;;;;17.00;8.48;;;;;;;-142.75;100.00;78836.66;4968438;28;20313;-65
2022/11/20 05:53:17;;;;;;;14.05;7.50;;;;;;;-142.75;100.00;78818.91;4978728;28;20196;-65
2022/11/20 05:55:42;;;;;;;16.27;8.43;;;;;;;-142.75;100.00;78805.13;4959381;28;20340;-63
2022/11/20 05:58:08;;;;;;;15.32;8.30;;;;;;;-142.75;100.00;78803.16;4971577;28;20395;-64
2022/11/20 06:00:33;;;;;;;19.45;7.93;;;;;;;-142.75;100.00;78795.28;4978997;28;20351;-64
2022/11/20 06:02:59;;;;;;;15.15;7.85;;;;;;;-142.75;100.00;78795.28;4975330;28;20324;-63
2022/11/20 06:05:24;;;;;;;13.30;7.38;;;;;;;-142.75;100.00;78791.34;4978531;28;20382;-63
2022/11/20 06:07:50;;;;;;;16.40;8.50;;;;;;;-142.75;100.00;78803.16;4976164;28;20505;-64
2022/11/20 06:10:15;;;;;;;13.68;7.82;;;;;;;-142.75;100.00;78783.47;4972776;28;20386;-64
2022/11/20 06:12:41;;;;;;;14.82;7.47;;;;;;;-142.75;100.00;78759.84;4975391;28;20291;-64
2022/11/20 06:15:07;;;;;;;15.82;8.27;;;;;;;-142.75;100.00;78759.84;4971921;28;20305;-64
2022/11/20 06:17:32;;;;;;;13.95;7.82;;;;;;;-142.75;100.00;78773.63;4976483;28;20358;-64
2022/11/20 06:19:58;;;;;;;14.20;7.68;;;;;;;-142.75;100.00;78763.78;4971158;28;20342;-64
2022/11/20 06:22:23;;;;;;;12.88;7.85;;;;;;;-142.75;100.00;78771.66;4974935;28;20341;-64
2022/11/20 06:24:48;;;;;;;15.18;8.23;;;;;;;-142.75;100.00;78775.59;4971924;28;20518;-64
2022/11/20 06:27:17;;;;;;;15.40;8.55;;;;;;;-142.75;100.00;78777.56;4976076;28;20422;-65
2022/11/20 06:29:42;;;;;;;14.00;7.43;;;;;;;-142.75;100.00;78791.34;4958470;28;20029;-65
2022/11/20 06:32:08;;;;;;;14.40;6.82;;;;;;;-142.75;100.00;78785.44;4972250;28;20402;-66
2022/11/20 06:34:33;;;;;;;15.60;6.95;;;;;;;-142.75;100.00;78791.34;4970392;28;20317;-65
2022/11/20 06:36:59;;;;;;;15.15;7.65;;;;;;;-142.75;100.00;78795.28;4969853;28;20434;-66
2022/11/20 06:39:24;;;;;;;16.23;8.23;;;;;;;-142.75;100.00;78799.22;4972002;28;20339;-66
2022/11/20 06:41:50;;;;;;;15.45;7.00;;;;;;;-142.75;100.00;78811.03;4972157;28;20365;-66
2022/11/20 06:44:15;;;;;;;17.25;8.63;;;;;;;-142.75;100.00;78820.88;4968815;28;20052;-65
2022/11/20 06:46:41;;;;;;;15.02;7.45;;;;;;;-142.75;100.00;78811.03;4968959;28;20130;-66
2022/11/20 06:49:06;;;;;;;15.00;7.88;;;;;;;-142.75;100.00;78822.88;4978517;28;20182;-66
2022/11/20 06:51:32;;;;;;;13.98;7.72;;;;;;;-142.75;100.00;78822.88;4978279;28;20390;-66
2022/11/20 06:53:57;;;;;;;14.98;8.00;;;;;;;-142.75;100.00;78811.03;4951886;28;20337;-66
2022/11/20 06:56:23;;;;;;;13.60;7.53;;;;;;;-142.75;100.00;78795.28;4968373;28;20196;-66
2022/11/20 06:58:48;;;;;;;16.08;8.52;;;;;;;-142.75;100.00;78789.38;4971714;28;20187;-66
2022/11/20 07:01:14;;;;;;;19.95;8.18;;;;;;;-142.75;100.00;78789.38;4971851;28;20037;-66
2022/11/20 07:03:40;;;;;;;;;;;;;;;-142.75;100.00;78771.66;4964977;28;20087;-66
2022/11/20 07:06:06;;;;;;;16.60;7.40;;;;;;;-142.75;100.00;78777.56;4981546;28;20098;-66
2022/11/20 07:08:32;;;;;;;13.50;7.72;;;;;;;-142.75;100.00;78781.50;4972386;28;20244;-66
2022/11/20 07:11:04;;;;;;;17.13;8.70;;;;;;;-142.75;100.00;78777.56;4977556;28;20028;-66
2022/11/20 07:13:30;;;;;;;17.80;9.17;;;;;;;-142.75;100.00;78787.41;4967647;28;20060;-66
2022/11/20 07:16:04;;;;;;;17.70;8.07;;;;;;;-142.75;100.00;78801.19;4969681;28;20037;-66
2022/11/20 07:18:29;;;;;;;17.43;8.23;;;;;;;-142.75;100.00;78816.94;4966790;28;20052;-66
2022/11/20 07:20:55;;;;;;;16.02;8.10;;;;;;;-142.75;100.00;78805.13;4967406;28;20351;-66
2022/11/20 07:23:20;;;;;;;12.70;7.47;;;;;;;-142.75;100.00;78809.06;4956075;28;20187;-66
2022/11/20 07:25:46;;;;;;;19.25;8.25;;;;;;;-142.75;100.00;78814.97;4975673;28;20335;-66
2022/11/20 07:28:11;;;;;;;15.68;7.68;;;;;;;-142.75;100.00;78816.94;4970882;28;20370;-66
2022/11/20 07:30:37;;;;;;;14.32;8.18;;;;;;;-142.75;100.00;78826.81;4974957;28;20381;-66
2022/11/20 07:33:03;;;;;;;13.95;7.88;;;;;;;-142.75;100.00;78818.91;4970644;28;20025;-66
2022/11/20 07:35:28;;;;;;;16.58;8.00;;;;;;;-142.75;100.00;78834.69;4964342;28;20091;-66
2022/11/20 07:37:54;;;;;;;19.92;9.55;;;;;;;-142.75;100.00;78826.81;4972171;28;20024;-66
2022/11/20 07:40:19;;;;;;;16.67;8.07;;;;;;;-142.75;100.00;78814.97;4969138;28;20328;-65
2022/11/20 07:42:49;;;;;;;18.10;8.73;;;;;;;-142.75;100.00;78811.03;4977004;28;20024;-65
2022/11/20 07:45:15;;;;;;;15.63;8.47;;;;;;;-142.75;100.00;78822.88;4964811;28;20029;-65
2022/11/20 07:47:41;;;;;;;19.52;9.40;;;;;;;-142.75;100.00;78818.91;4972198;28;20494;-64
2022/11/20 07:50:07;;;;;;;20.40;9.48;;;;;;;-142.75;100.00;78809.06;4973000;28;20206;-64
2022/11/20 07:52:32;;;;;;;;;;;;;;;-142.75;100.00;78799.22;4973867;28;20056;-65
2022/11/20 07:54:58;;;;;;;21.17;9.17;;;;;;;-142.75;100.00;78791.34;4969413;28;20247;-65
2022/11/20 07:57:23;;;;;;;17.45;9.23;;;;;;;-142.75;100.00;78783.47;4976747;28;20128;-65
2022/11/20 07:59:49;;;;;;;18.13;9.50;;;;;;;-142.75;100.00;78779.53;4971960;28;20433;-65
2022/11/20 08:02:14;;;;;;;18.42;9.43;;;;;;;-142.75;100.00;78793.31;4967709;28;20429;-65
2022/11/20 08:04:40;;;;;;;19.02;9.63;;;;;;;-142.75;100.00;78771.66;4970219;28;20343;-65
2022/11/20 08:07:05;;;;;;;27.33;9.45;;;;;;;-142.75;100.00;78775.59;4972608;28;20547;-65
2022/11/20 08:09:31;;;;;;;22.10;9.60;;;;;;;-142.75;100.00;78763.78;4971404;28;20331;-66
2022/11/20 08:14:40;;;;;;;20.03;9.67;;;;;;;-142.75;100.00;78730.28;4977126;28;20608;-66
2022/11/20 08:17:06;;;;;;;19.63;10.50;;;;;;;-142.75;100.00;78724.38;4965759;28;20029;-65
2022/11/20 08:19:31;;;;;;;20.17;11.05;;;;;;;-142.75;100.00;78696.81;4967415;28;20359;-65
2022/11/20 08:21:57;;;;;;;21.08;11.43;;;;;;;-142.75;100.00;78679.09;4967500;28;20459;-65
2022/11/20 08:24:22;;;;;;;18.65;10.27;;;;;;;-142.75;100.00;78669.25;4971844;28;20199;-66
2022/11/20 08:26:48;;;;;;;24.65;11.00;;;;;;;-142.75;100.00;78681.06;4974491;28;20350;-66
2022/11/20 08:29:13;;;;;;;23.73;10.55;;;;;;;-142.75;100.00;78665.28;4957427;28;20347;-65
2022/11/20 08:31:39;;;;;;;18.88;10.82;;;;;;;-142.75;100.00;78657.41;4957086;28;20417;-66
2022/11/20 08:34:04;;;;;;;25.77;11.18;;;;;;;-142.75;100.00;78643.63;4978070;28;20247;-68
2022/11/20 08:36:33;;;;;;;17.63;10.38;;;;;;;-142.75;100.00;78633.78;4971120;28;20052;-67
2022/11/20 08:38:59;;;;;;;19.00;10.30;;;;;;;-142.75;100.00;78639.69;4960825;28;20068;-68
2022/11/20 08:41:25;;;;;;;21.42;11.52;;;;;;;-142.75;100.00;78616.06;4968735;28;20177;-65
2022/11/20 08:44:02;;;;;;;27.43;11.80;;;;;;;-142.75;100.00;78604.25;4980664;28;20112;-67
2022/11/20 08:46:36;;;;;;;18.77;9.97;;;;;;;-142.75;100.00;78614.09;4970981;28;20025;-66
2022/11/20 08:49:03;;;;;;;19.67;10.97;;;;;;;-142.75;100.00;78621.97;4972493;28;20082;-66
2022/11/20 08:51:29;;;;;;;21.63;10.57;;;;;;;-142.75;100.00;78606.22;4976622;28;20035;-66
2022/11/20 08:53:55;;;;;;;;;;;;;;;-142.75;100.00;78598.34;4974773;28;20025;-67
2022/11/20 08:56:20;;;;;;;16.03;9.00;;;;;;;-142.75;100.00;78598.34;4969467;28;20206;-66
2022/11/20 08:58:46;;;;;;;18.25;9.85;;;;;;;-142.75;100.00;78586.53;4969788;28;20326;-66
2022/11/20 09:01:11;;;;;;;18.75;10.43;;;;;;;-142.75;100.00;78594.41;4974499;28;20319;-66
2022/11/20 09:03:37;;;;;;;20.95;10.77;;;;;;;-142.75;100.00;78582.59;4971879;28;20397;-66
2022/11/20 09:06:05;;;;;;;19.98;10.40;;;;;;;-142.75;100.00;78568.78;4957620;28;20312;-65
2022/11/20 09:08:30;;;;;;;20.73;10.20;;;;;;;-142.75;100.00;78558.94;4971514;28;20049;-67
2022/11/20 09:10:57;;;;;;;21.67;10.77;;;;;;;-142.75;100.00;78541.22;4971135;28;20422;-67
2022/11/20 09:13:24;;;;;;;21.10;11.43;;;;;;;-142.75;100.00;78529.41;4975120;28;20056;-67
2022/11/20 09:15:57;;;;;;;19.83;11.13;;;;;;;-142.75;100.00;78529.41;4974389;28;20106;-66
2022/11/20 09:18:23;;;;;;;20.00;10.60;;;;;;;-142.75;100.00;78507.75;4973072;28;20128;-64
2022/11/20 09:20:49;;;;;;;;;;;;;;;-142.75;100.00;78513.66;4972523;28;20022;-65
2022/11/20 09:23:15;;;;;;;20.10;10.97;;;;;;;-142.75;100.00;78509.72;4978379;28;20248;-65
2022/11/20 09:25:41;;;;;;;18.45;10.48;;;;;;;-142.75;100.00;78495.94;4977262;28;20317;-65
2022/11/20 09:28:07;;;;;;;21.07;11.20;;;;;;;-142.75;100.00;78491.97;4974422;28;20017;-66
2022/11/20 09:30:32;;;;;;;23.77;11.32;;;;;;;-142.75;100.00;78482.13;4976599;28;20382;-65
2022/11/20 09:32:58;;;;;;;26.20;12.60;;;;;;;-142.75;100.00;78480.16;4971351;28;20406;-66
2022/11/20 09:35:23;;;;;;;22.75;12.27;;;;;;;-142.75;100.00;78468.34;4973504;28;20332;-65
2022/11/20 09:37:49;;;;;;;21.40;11.65;;;;;;;-142.75;100.00;78472.28;4968748;28;20458;-65
2022/11/20 09:40:24;;;;;;;21.20;11.30;;;;;;;-142.75;100.00;78450.63;4975750;28;20342;-65
2022/11/20 09:43:03;;;;;;;21.53;11.63;;;;;;;-142.75;100.00;78432.91;4975515;28;20195;-65
2022/11/20 09:45:47;;;;;;;20.17;12.00;;;;;;;-142.75;100.00;78417.16;4964502;28;20033;-65
2022/11/20 09:48:26;;;;;;;20.73;11.57;;;;;;;-142.75;100.00;78409.28;4971605;28;20128;-65
2022/11/20 09:51:29;;;;;;;23.53;11.70;;;;;;;-142.75;100.00;78399.44;4971193;28;20102;-65
2022/11/20 09:54:18;;;;;;;22.77;12.00;;;;;;;-142.75;100.00;78393.50;4975880;28;20032;-66
2022/11/20 09:56:58;;;;;;;22.87;11.67;;;;;;;-142.75;100.00;78389.56;4973874;28;20026;-66
2022/11/20 09:59:31;;;;;;;22.13;12.53;;;;;;;-142.75;100.00;78385.63;4972881;28;20485;-65
2022/11/20 10:01:59;;;;;;;24.27;13.03;;;;;;;-142.75;100.00;78397.44;4977997;28;20053;-67
2022/11/20 10:04:25;;;;;;;27.23;14.03;;;;;;;-142.75;100.00;78377.75;4972878;28;20199;-68
2022/11/20 10:07:06;;;;;;;27.15;13.77;;;;;;;-142.75;100.00;78369.88;4975204;28;20318;-67
2022/11/20 10:09:36;;;;;;;26.23;13.33;;;;;;;-142.75;100.00;78354.13;4978231;28;20551;-67
2022/11/20 10:12:04;;;;;;;26.67;13.43;;;;;;;-142.75;100.00;78338.38;4976858;28;20029;-67
2022/11/20 10:14:38;;;;;;;27.23;14.03;;;;;;;-142.75;100.00;78318.69;4980666;28;20701;-66
2022/11/20 10:17:03;;;;;;;30.97;14.30;;;;;;;-142.75;100.00;78312.78;4969776;28;20033;-66
2022/11/20 10:19:45;;;;;;;28.65;16.00;;;;;;;-142.75;100.00;78297.00;4955512;28;20466;-69
2022/11/20 10:22:19;;;;;;;26.77;14.53;;;;;;;-142.75;100.00;78275.34;4956483;28;20082;-67
2022/11/20 10:24:51;;;;;;;27.63;14.50;;;;;;;-142.75;100.00;78283.22;4973486;28;20632;-67
2022/11/20 10:27:51;;;;;;;27.77;14.57;;;;;;;-142.75;100.00;78263.53;4968648;28;20021;-67
2022/11/20 10:30:19;;;;;;;24.87;13.07;;;;;;;-142.75;100.00;78259.59;4969023;28;20640;-67
2022/11/20 10:32:56;;;;;;;26.23;12.53;;;;;;;-142.75;100.00;78255.66;4952291;28;20028;-67
2022/11/20 10:35:34;;;;;;;25.13;13.70;;;;;;;-142.75;100.00;78251.72;4963183;28;20021;-67
2022/11/20 10:38:05;;;;;;;27.00;13.27;;;;;;;-142.75;100.00;78237.94;4950675;28;20096;-67
2022/11/20 10:40:36;;;;;;;27.57;14.17;;;;;;;-142.75;100.00;78239.91;4966803;28;20055;-68
2022/11/20 10:43:08;;;;;;;27.97;15.00;;;;;;;-142.75;100.00;78235.97;4977084;28;20071;-67
2022/11/20 10:45:43;;;;;;;29.33;14.17;;;;;;;-142.75;100.00;78239.91;4956906;28;20048;-67
2022/11/20 10:48:25;;;;;;;30.00;14.07;;;;;;;-142.75;100.00;78226.13;4984885;22;20062;-69
2022/11/20 10:51:19;;;;;;;27.60;13.50;;;;;;;-142.75;100.00;78220.22;4951645;28;20056;-70
2022/11/20 10:54:11;;;;;;;28.03;13.20;;;;;;;-142.75;100.00;78208.41;4942986;28;20160;-69
2022/11/20 10:56:47;;;;;;;25.10;14.03;;;;;;;-142.75;100.00;78204.47;4950934;28;20040;-70
2022/11/20 10:59:34;;;;;;;25.67;13.17;;;;;;;-142.75;100.00;78186.75;4948777;28;20022;-69
2022/11/20 11:01:59;;;;;;;28.83;14.77;;;;;;;-142.75;100.00;78174.91;4949570;28;20030;-70
2022/11/20 11:04:28;;;;;;;33.35;16.38;;;;;;;-142.75;100.00;78161.13;4957079;28;20412;-69
2022/11/20 11:07:01;;;;;;;30.23;15.00;;;;;;;-142.75;100.00;78153.25;4952984;28;20120;-69
2022/11/20 11:09:37;;;;;;;30.70;14.53;;;;;;;-142.75;100.00;78157.19;4956791;28;20223;-69
2022/11/20 11:12:07;;;;;;;25.15;11.55;;;;;;;-142.75;100.00;78145.38;4955557;28;20033;-69
2022/11/20 11:14:44;;;;;;;38.87;16.50;;;;;;;-142.75;100.00;78121.75;4946651;28;20268;-70
2022/11/20 11:17:27;;;;;;;35.50;17.53;;;;;;;-142.75;100.00;78115.84;4951655;28;20581;-70